Time;durP1;ratioP1;P1;durP2;ratioP2;P2;SDS_P1;SDS_P2;PMS_P1;PMS_P2;Temp;Humidity;BMP_temperature;BMP_pressure;BME280_temperature;BME280_humidity;BME280_pressure;Samples;Min_cycle;Max_cycle;Signal;HPM_P1;HPM_P2
2022/11/17 00:00:57;;;;;;;62.47;10.80;;;;;;;6.04;100.00;96969.75;15278549;19;20035;-50
2022/11/17 00:06:22;;;;;;;32.20;10.18;;;;;;;6.05;100.00;96958.06;15274310;19;20101;-53
2022/11/17 00:17:26;;;;;;;16.13;8.88;;;;;;;6.10;100.00;96981.63;15275055;19;20022;-54
2022/11/17 00:22:51;;;;;;;13.90;8.35;;;;;;;6.11;100.00;96961.91;15284284;19;20028;-53
2022/11/17 00:28:16;;;;;;;19.88;8.05;;;;;;;6.10;100.00;96966.41;15292602;19;20106;-51
2022/11/17 00:39:22;;;;;;;69.60;7.70;;;;;;;6.08;100.00;96944.34;15293054;19;20082;-50
2022/11/17 00:44:47;;;;;;;47.33;8.07;;;;;;;6.07;100.00;96945.34;15288104;19;20034;-52
2022/11/17 00:50:14;;;;;;;17.08;8.40;;;;;;;6.07;100.00;96941.84;15291018;19;20015;-50
2022/11/17 00:55:39;;;;;;;15.55;8.30;;;;;;;6.06;100.00;96943.66;15279680;19;20070;-50
2022/11/17 01:01:04;;;;;;;27.83;8.45;;;;;;;6.07;100.00;96920.47;15290729;19;20018;-52
2022/11/17 01:06:32;;;;;;;12.60;8.40;;;;;;;6.06;100.00;96916.94;15283325;19;20010;-52
2022/11/17 01:11:57;;;;;;;23.40;8.50;;;;;;;6.06;100.00;96921.47;15290450;19;20359;-54
2022/11/17 01:17:21;;;;;;;20.98;7.70;;;;;;;6.01;100.00;96895.25;15287567;19;20014;-52
2022/11/17 01:22:48;;;;;;;28.83;8.35;;;;;;;6.01;100.00;96903.25;15288925;19;20029;-52
2022/11/17 01:28:13;;;;;;;26.23;8.57;;;;;;;5.99;100.00;96916.81;15284019;19;20018;-52
2022/11/17 01:33:38;;;;;;;12.88;7.93;;;;;;;5.99;100.00;96900.78;15284667;19;20018;-75
2022/11/17 01:39:05;;;;;;;15.75;7.75;;;;;;;5.96;100.00;96884.19;15290522;19;20016;-76
2022/11/17 01:45:04;;;;;;;15.32;8.45;;;;;;;5.93;100.00;96879.19;15287054;19;20078;-76
2022/11/17 01:50:40;;;;;;;12.30;8.18;;;;;;;5.91;100.00;96871.31;15292927;19;20540;-76
2022/11/17 01:56:11;;;;;;;13.15;7.78;;;;;;;5.90;100.00;96875.00;15291865;19;20117;-76
2022/11/17 02:01:54;;;;;;;11.37;7.00;;;;;;;5.90;100.00;96868.84;15289907;19;20563;-76
2022/11/17 02:07:24;;;;;;;11.00;6.82;;;;;;;5.86;100.00;96863.81;15289122;19;20038;-76
2022/11/17 02:12:53;;;;;;;11.77;6.80;;;;;;;5.83;100.00;96858.81;15293288;19;20034;-76
2022/11/17 02:18:19;;;;;;;9.88;7.10;;;;;;;5.78;100.00;96853.16;15287517;19;20010;-76
2022/11/17 02:24:21;;;;;;;14.57;6.30;;;;;;;5.79;100.00;96868.19;15290039;19;20031;-76
2022/11/17 02:29:52;;;;;;;;;;;;;;;5.75;100.00;96866.03;15289277;19;20002;-76
2022/11/17 02:35:28;;;;;;;20.17;5.15;;;;;;;5.68;100.00;96855.19;15291833;19;19923;-78
2022/11/17 02:40:59;;;;;;;15.30;4.32;;;;;;;5.66;100.00;96851.84;15292079;19;20385;-77
2022/11/17 02:46:31;;;;;;;21.63;4.05;;;;;;;5.64;100.00;96853.84;15295036;19;20014;-77
2022/11/17 02:51:58;;;;;;;15.17;3.87;;;;;;;5.58;100.00;96855.34;15301156;19;20090;-78
2022/11/17 02:57:42;;;;;;;18.83;3.90;;;;;;;5.52;100.00;96851.50;15301756;19;20014;-78
2022/11/17 03:03:24;;;;;;;13.10;3.50;;;;;;;5.48;100.00;96850.16;15289071;19;20007;-78
2022/11/17 03:08:58;;;;;;;20.45;3.72;;;;;;;5.50;100.00;96847.34;15302372;19;20031;-79
2022/11/17 03:14:31;;;;;;;13.68;3.70;;;;;;;5.48;100.00;96831.47;15301589;19;20025;-79
2022/11/17 03:20:06;;;;;;;15.60;3.90;;;;;;;5.43;100.00;96833.84;15307933;19;20019;-79
2022/11/17 03:25:36;;;;;;;7.38;3.83;;;;;;;5.43;100.00;96841.84;15196345;19;2003936;-78
2022/11/17 03:31:02;;;;;;;15.52;3.92;;;;;;;5.42;100.00;96837.50;15303084;19;20014;-77
2022/11/17 03:36:40;;;;;;;10.68;4.00;;;;;;;5.41;100.00;96830.50;15292976;19;20045;-78
2022/11/17 03:42:09;;;;;;;11.73;3.92;;;;;;;5.38;100.00;96814.78;15301821;19;20027;-78
2022/11/17 03:47:36;;;;;;;15.90;4.20;;;;;;;5.36;100.00;96808.78;15295715;19;20010;-78
2022/11/17 03:53:06;;;;;;;9.27;4.53;;;;;;;5.27;100.00;96785.78;15280911;19;20465;-77
2022/11/17 03:58:36;;;;;;;11.40;4.88;;;;;;;5.23;100.00;96783.44;15283550;19;20011;-76
2022/11/17 04:04:08;;;;;;;14.30;5.05;;;;;;;5.17;100.00;96773.44;15284325;19;20015;-75
2022/11/17 04:09:35;;;;;;;14.77;5.30;;;;;;;5.17;100.00;96773.44;15285195;19;20007;-76
2022/11/17 04:20:38;;;;;;;18.35;6.13;;;;;;;5.15;100.00;96761.25;15295545;19;20086;-74
2022/11/17 04:31:44;;;;;;;16.40;7.10;;;;;;;5.09;100.00;96758.25;15281795;19;20035;-74
2022/11/17 04:37:16;;;;;;;13.55;7.28;;;;;;;5.12;100.00;96770.41;15273718;19;20096;-75
2022/11/17 04:42:43;;;;;;;;;;;;;;;5.12;100.00;96770.41;15277745;19;20011;-75
2022/11/17 04:48:07;;;;;;;10.77;7.72;;;;;;;5.14;100.00;96776.44;15275949;19;19978;-74
2022/11/17 04:53:33;;;;;;;12.18;8.15;;;;;;;5.18;100.00;96768.91;15282773;19;20022;-75
2022/11/17 04:59:00;;;;;;;10.63;7.40;;;;;;;5.18;100.00;96759.09;15278275;19;20017;-75
2022/11/17 05:10:01;;;;;;;13.40;8.15;;;;;;;5.20;100.00;96732.22;15291427;19;20447;-75
2022/11/17 05:21:10;;;;;;;12.38;9.00;;;;;;;5.17;100.00;96705.88;15293709;19;20014;-74
2022/11/17 05:26:36;;;;;;;14.75;9.40;;;;;;;5.15;100.00;96700.69;15291696;19;20334;-75
2022/11/17 05:32:03;;;;;;;15.20;10.15;;;;;;;5.14;100.00;96677.66;15293622;19;20003;-75
2022/11/17 05:37:34;;;;;;;15.65;10.30;;;;;;;5.12;100.00;96674.31;15279668;19;20673;-75
2022/11/17 05:42:59;;;;;;;13.63;10.27;;;;;;;5.11;100.00;96670.03;15279544;19;20021;-75
2022/11/17 05:48:26;;;;;;;17.95;9.60;;;;;;;5.03;100.00;96665.53;15283302;19;20504;-75
2022/11/17 05:53:51;;;;;;;21.27;10.15;;;;;;;5.02;100.00;96652.34;15291362;19;20074;-75
2022/11/17 05:59:26;;;;;;;25.27;10.25;;;;;;;5.01;100.00;96661.34;15288775;19;20019;-74
2022/11/17 06:04:54;;;;;;;17.75;10.38;;;;;;;4.97;100.00;96662.69;15287964;19;20262;-73
2022/11/17 06:10:18;;;;;;;15.15;10.20;;;;;;;4.96;100.00;96664.53;15299238;19;20015;-73
2022/11/17 06:15:43;;;;;;;21.75;10.95;;;;;;;4.96;100.00;96669.84;15285713;19;20014;-74
2022/11/17 06:21:10;;;;;;;16.60;10.35;;;;;;;4.94;100.00;96686.06;15291729;19;20026;-74
2022/11/17 06:26:35;;;;;;;16.65;11.13;;;;;;;4.90;100.00;96686.56;15288558;19;20033;-74
2022/11/17 06:32:00;;;;;;;14.38;10.52;;;;;;;4.93;100.00;96687.03;15291743;19;20346;-74
2022/11/17 06:37:27;;;;;;;11.70;9.75;;;;;;;4.92;100.00;96690.72;15285230;19;20015;-74
2022/11/17 06:48:34;;;;;;;11.25;9.55;;;;;;;4.98;100.00;96702.56;15282535;19;20020;-74
2022/11/17 06:54:02;;;;;;;12.20;9.70;;;;;;;4.94;100.00;96678.03;15291049;19;20421;-74
2022/11/17 06:59:28;;;;;;;13.40;9.40;;;;;;;4.96;100.00;96690.38;15288868;19;20034;-74
2022/11/17 07:04:52;;;;;;;10.73;9.50;;;;;;;4.94;100.00;96694.06;15288074;19;20029;-75
2022/11/17 07:10:19;;;;;;;12.82;9.18;;;;;;;4.91;100.00;96665.03;15293588;19;20011;-75
2022/11/17 07:15:44;;;;;;;12.02;10.00;;;;;;;4.84;100.00;96665.88;15331181;19;20014;-73
2022/11/17 07:21:11;;;;;;;23.30;9.27;;;;;;;4.85;100.00;96668.38;15306641;19;20435;-75
2022/11/17 07:26:38;;;;;;;14.95;8.98;;;;;;;4.80;100.00;96681.38;15284029;19;20010;-75
2022/11/17 07:32:03;;;;;;;10.98;9.23;;;;;;;4.80;100.00;96681.38;15286418;19;20017;-74
2022/11/17 07:37:34;;;;;;;13.85;8.43;;;;;;;4.77;100.00;96665.72;15278936;19;20014;-75
2022/11/17 07:43:01;;;;;;;10.27;8.20;;;;;;;4.75;100.00;96651.72;15284497;19;20094;-74
2022/11/17 07:48:26;;;;;;;9.40;8.00;;;;;;;4.68;100.00;96619.56;15281517;19;20011;-74
2022/11/17 07:53:51;;;;;;;8.48;7.50;;;;;;;4.72;100.00;96618.19;15281289;19;20010;-75
2022/11/17 07:59:20;;;;;;;11.88;6.85;;;;;;;4.73;100.00;96616.38;15281484;19;20373;-73
2022/11/17 08:04:45;;;;;;;7.57;6.78;;;;;;;4.73;100.00;96616.38;15282304;19;20011;-74
2022/11/17 08:10:09;;;;;;;7.60;6.80;;;;;;;4.75;100.00;96633.88;15284703;19;20049;-75
2022/11/17 08:15:37;;;;;;;7.95;6.97;;;;;;;4.77;100.00;96634.53;15280910;19;20046;-75
2022/11/17 08:21:09;;;;;;;7.95;6.97;;;;;;;4.80;100.00;96630.69;15282561;19;20014;-74
2022/11/17 08:26:34;;;;;;;7.50;6.53;;;;;;;4.83;100.00;96627.69;15274640;19;20350;-75
2022/11/17 08:32:01;;;;;;;7.38;6.40;;;;;;;4.87;100.00;96628.19;15282422;19;20025;-75
2022/11/17 08:37:32;;;;;;;9.20;6.80;;;;;;;4.92;100.00;96626.69;15278479;19;20033;-75
2022/11/17 08:42:57;;;;;;;7.30;6.53;;;;;;;4.93;100.00;96612.34;15293247;19;20022;-75
2022/11/17 08:48:24;;;;;;;8.88;7.50;;;;;;;5.00;100.00;96617.00;15295080;19;20026;-74
2022/11/17 08:53:49;;;;;;;8.60;7.70;;;;;;;5.07;100.00;96623.31;15297539;19;20029;-75
2022/11/17 08:59:15;;;;;;;9.02;8.13;;;;;;;5.13;100.00;96619.94;15290963;19;20480;-75
2022/11/17 09:04:44;;;;;;;9.00;8.10;;;;;;;5.19;100.00;96621.09;15293097;19;20025;-75
2022/11/17 09:10:10;;;;;;;9.88;7.97;;;;;;;5.22;100.00;96618.94;15297325;19;20468;-75
2022/11/17 09:15:35;;;;;;;8.57;7.68;;;;;;;5.28;100.00;96627.25;15295953;19;20790;-75
2022/11/17 09:21:07;;;;;;;10.15;8.52;;;;;;;5.32;100.00;96628.56;15298886;19;20021;-75
2022/11/17 09:26:32;;;;;;;9.43;7.82;;;;;;;5.40;100.00;96623.19;15326975;19;20031;-75
2022/11/17 09:31:57;;;;;;;9.57;7.53;;;;;;;5.47;100.00;96610.81;15305196;19;20015;-75
2022/11/17 09:37:31;;;;;;;9.95;8.18;;;;;;;5.55;100.00;96608.13;15291049;19;20047;-75
2022/11/17 09:42:56;;;;;;;9.10;7.38;;;;;;;5.65;100.00;96593.72;15294075;19;20038;-74
2022/11/17 09:48:26;;;;;;;9.88;7.28;;;;;;;5.69;100.00;96595.03;15288654;19;20492;-75
2022/11/17 09:54:07;;;;;;;11.65;8.43;;;;;;;5.75;100.00;96582.81;15287672;19;20013;-74
2022/11/17 09:59:35;;;;;;;8.00;7.20;;;;;;;5.83;100.00;96586.25;15289799;19;20020;-76
2022/11/17 10:05:01;;;;;;;7.95;6.72;;;;;;;5.99;100.00;96595.16;15290107;19;20010;-75
2022/11/17 10:10:36;;;;;;;7.40;6.70;;;;;;;6.07;100.00;96592.47;15297911;19;20018;-74
2022/11/17 10:16:05;;;;;;;7.47;6.68;;;;;;;6.13;100.00;96578.41;15297521;19;20014;-75
2022/11/17 10:21:29;;;;;;;6.30;5.70;;;;;;;6.16;100.00;96563.84;15347036;19;20014;-74
2022/11/17 10:26:56;;;;;;;7.22;6.38;;;;;;;6.24;100.00;96554.91;15302123;19;20017;-75
2022/11/17 10:32:23;;;;;;;7.88;6.00;;;;;;;6.32;100.00;96558.34;15290747;19;20101;-75
2022/11/17 10:38:02;;;;;;;5.97;5.35;;;;;;;6.43;100.00;96545.56;15285691;19;20067;-75
2022/11/17 10:43:33;;;;;;;5.72;5.15;;;;;;;6.50;100.00;96548.34;15289263;19;20033;-74
2022/11/17 10:49:04;;;;;;;7.03;5.60;;;;;;;6.58;100.00;96530.38;15284876;19;20014;-75
2022/11/17 10:54:29;;;;;;;6.17;5.33;;;;;;;6.83;100.00;96523.91;15285506;19;20086;-75
2022/11/17 10:59:59;;;;;;;5.05;4.40;;;;;;;7.02;100.00;96530.56;15283637;19;20006;-75
2022/11/17 11:05:24;;;;;;;4.72;4.28;;;;;;;7.23;100.00;96517.25;15276643;19;20021;-74
2022/11/17 11:10:51;;;;;;;4.70;3.80;;;;;;;7.43;100.00;96513.16;15286326;19;20010;-75
2022/11/17 11:16:19;;;;;;;4.20;3.40;;;;;;;7.52;100.00;96490.56;15282446;19;20022;-75
2022/11/17 11:22:00;;;;;;;4.43;3.80;;;;;;;7.52;100.00;96486.06;15285718;19;20509;-75
2022/11/17 11:27:36;;;;;;;4.23;3.83;;;;;;;7.52;100.00;96461.94;15278658;19;20098;-75
2022/11/17 11:33:19;;;;;;;4.85;3.85;;;;;;;7.53;100.00;96444.81;15285096;19;20025;-76
2022/11/17 11:39:00;;;;;;;3.90;3.50;;;;;;;7.54;100.00;96461.75;15276929;19;20010;-74
2022/11/17 11:44:35;;;;;;;;;;;;;;;7.52;100.00;96455.75;15281772;19;20022;-74
2022/11/17 11:50:05;;;;;;;3.72;3.25;;;;;;;7.71;100.00;96454.28;15282458;19;19924;-74
2022/11/17 11:55:41;;;;;;;4.00;3.60;;;;;;;7.81;100.00;96462.00;15280801;19;20414;-75
2022/11/17 12:01:09;;;;;;;3.83;3.28;;;;;;;7.86;100.00;96462.25;15284238;19;20007;-75
2022/11/17 12:06:48;;;;;;;3.50;3.20;;;;;;;7.90;100.00;96457.31;15276356;19;20025;-75
2022/11/17 12:12:17;;;;;;;3.40;3.10;;;;;;;7.96;100.00;96460.06;15277276;19;20497;-74
2022/11/17 12:17:42;;;;;;;3.00;2.80;;;;;;;8.00;100.00;96464.03;15273745;19;20477;-75
2022/11/17 12:23:21;;;;;;;4.53;2.80;;;;;;;8.04;100.00;96459.09;15284042;19;20011;-75
2022/11/17 12:28:47;;;;;;;3.13;2.83;;;;;;;8.08;100.00;96448.81;15279604;19;20046;-74
2022/11/17 12:34:29;;;;;;;3.00;2.70;;;;;;;8.11;100.00;96456.47;15281786;19;20070;-75
2022/11/17 12:40:10;;;;;;;2.47;2.28;;;;;;;8.13;100.00;96441.84;15277687;19;20011;-75
2022/11/17 12:46:03;;;;;;;2.30;2.10;;;;;;;8.18;100.00;96451.97;15274321;19;20019;-75
2022/11/17 12:51:39;;;;;;;2.00;1.90;;;;;;;8.28;100.00;96455.19;15280963;19;20014;-75
2022/11/17 12:57:12;;;;;;;2.08;1.88;;;;;;;8.37;100.00;96453.16;15279104;19;20010;-75
2022/11/17 13:03:01;;;;;;;2.00;1.70;;;;;;;8.46;100.00;96449.31;15283538;19;20749;-75
2022/11/17 13:08:26;;;;;;;1.75;1.65;;;;;;;8.53;100.00;96452.03;15278208;19;20010;-75
2022/11/17 13:13:54;;;;;;;1.73;1.60;;;;;;;8.57;100.00;96447.94;15282712;19;20365;-76
2022/11/17 13:19:41;;;;;;;1.65;1.55;;;;;;;8.61;100.00;96453.75;15281257;19;20014;-75
2022/11/17 13:31:48;;;;;;;1.40;1.10;;;;;;;8.66;100.00;96445.09;15300236;19;20469;-76
2022/11/17 13:37:13;;;;;;;1.33;1.00;;;;;;;8.70;100.00;96441.00;15306740;19;20014;-75
2022/11/17 13:42:38;;;;;;;0.80;0.80;;;;;;;8.74;100.00;96436.91;15359671;19;20025;-75
2022/11/17 13:48:05;;;;;;;2.20;1.00;;;;;;;8.75;100.00;96439.38;15294111;19;20094;-74
2022/11/17 13:53:33;;;;;;;0.80;0.80;;;;;;;8.77;100.00;96441.84;15314109;19;20856;-75
2022/11/17 13:58:59;;;;;;;0.82;0.80;;;;;;;8.79;100.00;96434.44;15289039;19;20014;-75
2022/11/17 14:04:27;;;;;;;1.67;0.77;;;;;;;8.81;100.00;96424.34;15291549;19;20007;-76
2022/11/17 14:09:51;;;;;;;1.48;0.50;;;;;;;8.86;100.00;96438.00;15286248;19;20119;-76
2022/11/17 14:15:24;;;;;;;0.88;0.60;;;;;;;8.84;100.00;96426.63;15294338;19;20332;-76
2022/11/17 14:20:51;;;;;;;0.63;0.60;;;;;;;8.81;100.00;96432.38;15284194;19;20050;-75
2022/11/17 14:26:22;;;;;;;1.05;0.75;;;;;;;8.81;100.00;96434.25;15285689;19;20617;-76
2022/11/17 14:31:47;;;;;;;3.00;1.43;;;;;;;8.80;100.00;96428.03;15291156;19;20082;-75
2022/11/17 14:37:15;;;;;;;1.15;0.50;;;;;;;8.81;100.00;96431.56;15282801;19;20289;-76
2022/11/17 14:42:40;;;;;;;0.85;0.85;;;;;;;8.81;100.00;96431.56;15288749;19;20043;-76
2022/11/17 14:48:06;;;;;;;1.27;0.88;;;;;;;8.77;100.00;96448.06;15285314;19;20038;-76
2022/11/17 14:53:38;;;;;;;2.03;0.93;;;;;;;8.60;100.00;96479.78;15286810;19;20081;-76
2022/11/17 14:59:03;;;;;;;4.53;0.85;;;;;;;8.43;100.00;96503.38;15286479;19;20030;-76
2022/11/17 15:04:28;;;;;;;0.98;0.35;;;;;;;8.22;100.00;96514.13;15284335;19;20018;-76
2022/11/17 15:10:11;;;;;;;2.03;0.40;;;;;;;8.04;100.00;96511.91;15283300;19;20029;-76
2022/11/17 15:15:36;;;;;;;1.08;0.50;;;;;;;7.88;100.00;96513.00;15277493;19;20363;-75
2022/11/17 15:21:03;;;;;;;1.90;0.30;;;;;;;7.79;100.00;96512.28;15281839;19;20497;-75
2022/11/17 15:26:31;;;;;;;1.00;0.40;;;;;;;7.80;100.00;96503.25;15274854;19;20101;-75
2022/11/17 15:31:56;;;;;;;1.13;0.60;;;;;;;7.78;100.00;96498.03;15283205;19;20013;-76
2022/11/17 15:37:21;;;;;;;0.73;0.70;;;;;;;7.75;100.00;96501.13;15276372;19;20028;-75
2022/11/17 15:42:49;;;;;;;0.95;0.60;;;;;;;7.72;100.00;96494.28;15283392;19;20396;-74
2022/11/17 15:48:14;;;;;;;1.08;0.40;;;;;;;7.63;100.00;96511.50;15278394;19;20089;-78
2022/11/17 15:53:41;;;;;;;0.90;0.50;;;;;;;7.58;100.00;96513.94;15278788;19;20010;-75
2022/11/17 15:59:09;;;;;;;0.30;0.30;;;;;;;7.51;100.00;96507.66;15272706;19;20003;-76
2022/11/17 16:04:35;;;;;;;1.85;0.50;;;;;;;7.45;100.00;96519.16;15277918;19;20016;-76
2022/11/17 16:10:00;;;;;;;3.28;0.60;;;;;;;7.33;100.00;96522.31;15282718;19;21604;-75
2022/11/17 16:15:29;;;;;;;0.65;0.52;;;;;;;7.25;100.00;96522.41;15279242;19;20029;-75
2022/11/17 16:20:56;;;;;;;0.82;0.60;;;;;;;7.23;100.00;96527.94;15281459;19;20517;-75
2022/11/17 16:26:24;;;;;;;1.15;0.60;;;;;;;7.19;100.00;96532.00;15279399;19;20536;-75
2022/11/17 16:31:51;;;;;;;0.93;0.88;;;;;;;7.16;100.00;96536.91;15279665;19;20010;-75
2022/11/17 16:37:16;;;;;;;2.35;0.80;;;;;;;7.14;100.00;96541.63;15280217;19;20018;-76
2022/11/17 16:42:42;;;;;;;1.30;0.60;;;;;;;7.09;100.00;96553.75;15286754;19;20027;-76
2022/11/17 16:48:15;;;;;;;0.93;0.80;;;;;;;7.07;100.00;96555.78;15277703;19;20023;-75
2022/11/17 16:53:40;;;;;;;0.52;0.50;;;;;;;7.07;100.00;96561.13;15291093;19;20683;-76
2022/11/17 16:59:06;;;;;;;1.40;0.60;;;;;;;7.06;100.00;96563.97;15300319;19;20032;-77
2022/11/17 17:04:37;;;;;;;1.25;0.80;;;;;;;7.04;100.00;96555.31;15343524;19;20014;-77
2022/11/17 17:10:02;;;;;;;0.70;0.70;;;;;;;7.03;100.00;96554.47;15315460;19;20022;-77
2022/11/17 17:15:41;;;;;;;0.40;0.40;;;;;;;7.03;100.00;96562.50;15296016;19;20043;-76
2022/11/17 17:21:14;;;;;;;0.30;0.30;;;;;;;7.05;100.00;96563.16;15318879;19;20031;-76
2022/11/17 17:26:47;;;;;;;1.02;0.52;;;;;;;7.03;100.00;96565.19;15297355;19;20010;-77
2022/11/17 17:32:12;;;;;;;0.80;0.70;;;;;;;7.02;100.00;96562.69;15292295;19;20014;-76
2022/11/17 17:37:46;;;;;;;0.55;0.50;;;;;;;6.99;100.00;96561.22;15290080;19;20469;-78
2022/11/17 17:43:12;;;;;;;1.27;0.60;;;;;;;6.93;100.00;96556.59;15291134;19;20066;-76
2022/11/17 17:48:38;;;;;;;0.88;0.50;;;;;;;6.89;100.00;96556.13;15279496;19;20024;-74
2022/11/17 17:54:11;;;;;;;0.60;0.60;;;;;;;6.86;100.00;96555.69;15287905;19;20437;-75
2022/11/17 17:59:36;;;;;;;1.90;1.70;;;;;;;6.84;100.00;96563.88;15283754;19;20025;-77
2022/11/17 18:05:21;;;;;;;1.50;1.35;;;;;;;6.83;100.00;96556.03;15297271;19;20021;-75
2022/11/17 18:10:50;;;;;;;2.75;1.17;;;;;;;6.80;100.00;96562.59;15338271;19;20010;-76
2022/11/17 18:16:28;;;;;;;1.25;1.00;;;;;;;6.79;100.00;96568.97;15283363;19;20026;-75
2022/11/17 18:22:01;;;;;;;1.13;1.00;;;;;;;6.78;100.00;96562.75;15291000;19;20039;-77
2022/11/17 18:27:35;;;;;;;1.00;0.80;;;;;;;6.77;100.00;96577.16;15283300;19;20022;-76
2022/11/17 18:33:07;;;;;;;1.40;1.02;;;;;;;6.77;100.00;96569.13;15281214;19;20022;-77
2022/11/17 18:38:40;;;;;;;1.05;0.95;;;;;;;6.77;100.00;96565.63;15276401;19;20098;-76
2022/11/17 18:44:09;;;;;;;1.13;0.85;;;;;;;6.75;100.00;96567.66;15265921;19;20493;-77
2022/11/17 18:49:38;;;;;;;1.00;0.90;;;;;;;6.72;100.00;96571.53;15278784;19;20011;-76
2022/11/17 18:55:07;;;;;;;1.20;1.10;;;;;;;6.68;100.00;96572.09;15283473;19;20050;-77
2022/11/17 19:00:34;;;;;;;1.17;1.08;;;;;;;6.65;100.00;96578.59;15279335;19;20540;-76
2022/11/17 19:06:00;;;;;;;2.47;1.20;;;;;;;6.63;100.00;96581.47;15278610;19;20042;-78
2022/11/17 19:11:28;;;;;;;2.33;1.20;;;;;;;6.59;100.00;96574.00;15281703;19;20057;-75
2022/11/17 19:16:56;;;;;;;1.77;1.30;;;;;;;6.60;100.00;96576.47;15281428;19;20078;-76
2022/11/17 19:22:21;;;;;;;2.38;1.13;;;;;;;6.60;100.00;96575.66;15286777;19;20032;-77
2022/11/17 19:27:46;;;;;;;1.73;1.30;;;;;;;6.62;100.00;96571.78;15277736;19;20014;-76
2022/11/17 19:33:14;;;;;;;1.27;1.10;;;;;;;6.61;100.00;96572.78;15286787;19;20034;-74
2022/11/17 19:38:47;;;;;;;1.10;1.00;;;;;;;6.59;100.00;96579.34;15278795;19;20457;-75
2022/11/17 19:44:12;;;;;;;1.92;1.10;;;;;;;6.60;100.00;96581.00;15279645;19;20862;-74
2022/11/17 19:49:39;;;;;;;1.58;1.00;;;;;;;6.59;100.00;96574.81;15277562;19;20479;-74
2022/11/17 19:55:04;;;;;;;1.98;1.10;;;;;;;6.59;100.00;96582.03;15282281;19;20033;-76
2022/11/17 20:00:29;;;;;;;2.75;1.20;;;;;;;6.56;100.00;96583.22;15286097;19;20018;-76
2022/11/17 20:06:01;;;;;;;1.98;1.10;;;;;;;6.54;100.00;96579.06;15288545;19;20017;-75
2022/11/17 20:11:30;;;;;;;1.50;1.20;;;;;;;6.53;100.00;96585.41;15309905;19;20002;-76
2022/11/17 20:16:55;;;;;;;1.83;1.05;;;;;;;6.54;100.00;96592.41;15339146;19;20033;-75
2022/11/17 20:22:23;;;;;;;1.48;1.15;;;;;;;6.53;100.00;96604.97;15284885;19;20074;-74
2022/11/17 20:27:48;;;;;;;2.83;1.65;;;;;;;6.49;100.00;96601.00;15282692;19;20079;-74
2022/11/17 20:33:13;;;;;;;1.85;1.50;;;;;;;6.45;100.00;96589.84;15284151;19;20014;-75
2022/11/17 20:38:47;;;;;;;1.33;1.10;;;;;;;6.46;100.00;96580.78;15289145;19;20015;-75
2022/11/17 20:44:22;;;;;;;1.90;1.23;;;;;;;6.46;100.00;96578.13;15296702;19;20038;-74
2022/11/17 20:49:47;;;;;;;1.33;1.15;;;;;;;6.43;100.00;96594.53;15284567;19;20485;-74
2022/11/17 20:55:14;;;;;;;2.25;1.40;;;;;;;6.38;100.00;96594.25;15295096;19;20595;-74
2022/11/17 21:00:38;;;;;;;6.88;1.50;;;;;;;6.36;100.00;96606.97;15295251;19;20020;-76
2022/11/17 21:06:04;;;;;;;2.47;1.20;;;;;;;6.29;100.00;96606.03;15291151;19;20035;-75
2022/11/17 21:18:22;;;;;;;3.00;1.60;;;;;;;6.27;100.00;96619.56;15290840;19;20014;-75
2022/11/17 21:22:54;;;;;;;1.65;1.30;;;;;;;6.30;100.00;96618.38;15289722;19;20025;-75
2022/11/17 21:28:22;;;;;;;2.88;1.30;;;;;;;6.35;100.00;96607.97;15292038;19;20019;-75
2022/11/17 21:33:47;;;;;;;2.17;1.50;;;;;;;6.35;100.00;96632.03;15292447;19;20416;-74
2022/11/17 21:39:18;;;;;;;2.75;1.48;;;;;;;6.36;100.00;96633.72;15287444;19;20017;-74
2022/11/17 21:44:46;;;;;;;2.13;1.50;;;;;;;6.36;100.00;96628.34;15290401;19;20010;-75
2022/11/17 21:50:11;;;;;;;2.75;1.52;;;;;;;6.38;100.00;96633.53;15284910;19;20361;-75
2022/11/17 21:55:36;;;;;;;3.97;1.80;;;;;;;6.42;100.00;96650.88;15289847;19;20014;-76
2022/11/17 22:01:05;;;;;;;4.07;1.67;;;;;;;6.46;100.00;96665.56;15293029;19;20623;-75
2022/11/17 22:06:29;;;;;;;2.90;1.40;;;;;;;6.48;100.00;96666.22;15288198;19;20023;-75
2022/11/17 22:11:54;;;;;;;2.80;1.23;;;;;;;6.54;100.00;96644.09;15315814;19;20035;-73
2022/11/17 22:17:22;;;;;;;2.42;1.35;;;;;;;6.57;100.00;96650.94;15333159;19;20014;-76
2022/11/17 22:22:48;;;;;;;1.63;1.30;;;;;;;6.59;100.00;96659.63;15286029;19;20011;-74
2022/11/17 22:28:13;;;;;;;3.22;1.50;;;;;;;6.61;100.00;96671.78;15283429;19;20018;-74
2022/11/17 22:33:41;;;;;;;2.15;1.58;;;;;;;6.66;100.00;96676.59;15287448;19;20362;-76
2022/11/17 22:39:08;;;;;;;2.55;1.48;;;;;;;6.68;100.00;96677.25;15281732;19;20010;-75
2022/11/17 22:44:33;;;;;;;3.25;1.60;;;;;;;6.70;100.00;96677.91;15288751;19;19999;-76
2022/11/17 22:50:00;;;;;;;2.88;1.40;;;;;;;6.72;100.00;96685.75;15283012;19;20082;-76
2022/11/17 22:55:25;;;;;;;1.67;1.25;;;;;;;6.76;100.00;96689.75;15284364;19;20018;-74
2022/11/17 23:00:51;;;;;;;1.70;1.20;;;;;;;6.78;100.00;96682.38;15288296;19;20025;-75
2022/11/17 23:06:19;;;;;;;1.88;1.20;;;;;;;6.82;100.00;96685.50;15290959;19;20015;-75
2022/11/17 23:11:44;;;;;;;2.20;1.17;;;;;;;6.88;100.00;96692.84;15293534;19;20021;-75
2022/11/17 23:17:09;;;;;;;1.88;1.23;;;;;;;6.89;100.00;96697.16;15294290;19;20030;-75
2022/11/17 23:22:37;;;;;;;1.73;1.10;;;;;;;6.90;100.00;96696.16;15332271;19;20033;-75
2022/11/17 23:28:02;;;;;;;1.63;1.40;;;;;;;6.90;100.00;96698.81;15314516;19;20486;-75
2022/11/17 23:33:26;;;;;;;2.45;1.30;;;;;;;6.92;100.00;96699.47;15287709;19;20018;-75
2022/11/17 23:38:54;;;;;;;2.58;1.27;;;;;;;6.94;100.00;96700.13;15281596;19;20483;-76
2022/11/17 23:44:18;;;;;;;2.65;1.30;;;;;;;6.96;100.00;96711.50;15286249;19;20002;-76
2022/11/17 23:49:43;;;;;;;2.25;1.25;;;;;;;6.96;100.00;96707.97;15281841;19;20078;-76
2022/11/17 23:55:11;;;;;;;1.75;1.38;;;;;;;6.97;100.00;96705.13;15283020;19;20022;-75
